Portada
METAR-TAF:

METAR-TAF

Aeroports :

Laconia Municipal Airport

Laconia, Nova Hampshire, Estats Units d'Amèrica

latitud: 43-34N, longitud: 071-25W, altitud: 166 m

Observació

L'informe es va fer fa 15 minuts, a les 20:56 UTC
Vent 12 kt del Sud-Oest
Temperatura 23°C
Humitat 57%
Pressió 1005 hPa
Visibilitat: 16.1 km
Escasses núvols a una alçada de 5000 ft
Cel ennuvolat a una alçada de 6500 ft
Cel ennuvolat a una alçada de 9000 ft

METAR: KLCI 192056Z AUTO 23012KT 10SM FEW050 BKN065 BKN090 23/14 A2969 RMK AO2 SLP070 T02330139 55008 PWINO $

Hora: 17:11 (21:11 UTC)


TAF: manca

Observacions i pronòstics meteorològics de més de 4000 aeroports (METAR i TAF).

Les estacions disponibles són els punts grocs i vermells al mapa.

Posi el ratolí al punt desitjat per veure el nom de l'estació.

Feu clic per veure les observacions i els pronòstics meteorològics.

Per canviar el mapa: feu clic els botons verds amb una creu de color negre per apropar; al botó verd amb un guió per allunyar la imatge; o en les fletxes verdes per a mapes adjacents.


METAR-TAF: